Terminal Aerodrome Forecast
Issued by NWS

Home | Current Version | Previous Version | Text Only | Print | Product List | Glossary On
Versions: 1 2 3 4 5 6 7 8 9 10 11 12 13 14 15 16 17 18
000
FTUS46 KLOX 090546
TAFBUR
TAF
KBUR 090546Z 0906/1006 VRB03KT P6SM SCT025 BKN080
     FM090900 VRB03KT 6SM BR VCSH BKN025
     FM092000 17007KT P6SM SCT025 BKN050
     FM100300 VRB03KT P6SM BKN040=

USA.gov is the U.S. government's official web portal to all federal, state and local government web resources and services.